Time;durP1;ratioP1;P1;durP2;ratioP2;P2;SDS_P1;SDS_P2;PMS_P1;PMS_P2;Temp;Humidity;BMP_temperature;BMP_pressure;BME280_temperature;BME280_humidity;BME280_pressure;Samples;Min_cycle;Max_cycle;Signal;HPM_P1;HPM_P2
2023/02/27 00:00:47;;;;;;;1.35;0.88;;;5.90;99.90;;;;;;5064488;28;20289;-75
2023/02/27 00:03:40;;;;;;;1.40;0.98;;;5.90;99.90;;;;;;5046408;28;20276;-75
2023/02/27 00:06:51;;;;;;;1.20;1.10;;;5.90;99.90;;;;;;5054426;28;20213;-76
2023/02/27 00:10:36;;;;;;;2.05;0.90;;;5.90;99.90;;;;;;5035945;28;20217;-75
2023/02/27 00:13:40;;;;;;;0.90;0.80;;;5.90;99.90;;;;;;5035679;28;21150;-74
2023/02/27 00:16:18;;;;;;;1.50;1.40;;;5.90;99.90;;;;;;5065525;28;20686;-75
2023/02/27 00:19:03;;;;;;;2.00;1.20;;;5.90;99.90;;;;;;5037321;28;20653;-75
2023/02/27 00:21:55;;;;;;;1.13;0.98;;;5.90;99.90;;;;;;5053401;28;20541;-75
2023/02/27 00:24:46;;;;;;;1.20;0.80;;;5.90;99.90;;;;;;5029644;28;20236;-74
2023/02/27 00:27:44;;;;;;;1.80;1.10;;;5.90;99.90;;;;;;5059279;28;20294;-75
2023/02/27 00:30:51;;;;;;;1.50;1.02;;;5.90;99.90;;;;;;5061410;28;20739;-75
2023/02/27 00:33:41;;;;;;;1.35;1.10;;;5.90;99.90;;;;;;5044079;28;20576;-75
2023/02/27 00:36:32;;;;;;;1.80;0.93;;;5.80;99.90;;;;;;5033367;28;20220;-75
2023/02/27 00:39:31;;;;;;;1.70;1.00;;;5.80;99.90;;;;;;5021509;28;20791;-74
2023/02/27 00:42:27;;;;;;;3.53;1.35;;;5.80;99.90;;;;;;5041417;28;20227;-75
2023/02/27 00:45:07;;;;;;;1.30;1.20;;;5.80;99.90;;;;;;5037274;28;20327;-76
2023/02/27 00:47:56;;;;;;;1.50;0.90;;;5.80;99.90;;;;;;5051404;28;20209;-75
2023/02/27 00:51:00;;;;;;;1.38;0.95;;;5.80;99.90;;;;;;5061563;28;20213;-75
2023/02/27 00:54:07;;;;;;;1.38;0.90;;;5.70;99.90;;;;;;5060864;28;20577;-75
2023/02/27 00:59:43;;;;;;;1.73;1.40;;;5.70;99.90;;;;;;5014344;28;20240;-75
2023/02/27 01:02:27;;;;;;;1.73;1.33;;;5.70;99.90;;;;;;5038135;28;20209;-77
2023/02/27 01:05:16;;;;;;;2.65;0.98;;;5.70;99.90;;;;;;5056641;28;20369;-75
2023/02/27 01:07:59;;;;;;;2.17;0.80;;;5.70;99.90;;;;;;5038936;28;20215;-74
2023/02/27 01:10:53;;;;;;;2.03;1.30;;;5.70;99.90;;;;;;5044615;28;20205;-75
2023/02/27 01:16:34;;;;;;;2.08;1.30;;;5.70;99.90;;;;;;5053925;28;20212;-77
2023/02/27 01:19:18;;;;;;;1.55;1.05;;;5.70;99.90;;;;;;5044372;28;20236;-74
2023/02/27 01:21:49;;;;;;;1.45;1.10;;;5.70;99.90;;;;;;5042393;28;20192;-76
2023/02/27 01:24:31;;;;;;;1.92;1.13;;;5.70;99.90;;;;;;5045640;28;20271;-75
2023/02/27 01:27:01;;;;;;;1.40;1.10;;;5.60;99.90;;;;;;5045797;28;20252;-75
2023/02/27 01:29:29;;;;;;;1.80;1.00;;;5.70;99.90;;;;;;5045769;28;20313;-76
2023/02/27 01:31:58;;;;;;;1.50;1.23;;;5.60;99.90;;;;;;5040733;28;20218;-74
2023/02/27 01:34:26;;;;;;;1.10;0.95;;;5.70;99.90;;;;;;5044161;28;20678;-76
2023/02/27 01:36:55;;;;;;;1.73;1.17;;;5.60;99.90;;;;;;5062499;28;20300;-75
2023/02/27 01:39:24;;;;;;;1.30;0.98;;;5.70;99.90;;;;;;5059940;28;20224;-74
2023/02/27 01:41:53;;;;;;;1.95;1.10;;;5.70;99.90;;;;;;5055656;28;20200;-75
2023/02/27 01:44:26;;;;;;;2.03;1.42;;;5.70;99.90;;;;;;5048971;28;20237;-74
2023/02/27 01:46:55;;;;;;;1.40;1.20;;;5.70;99.90;;;;;;5038268;28;20258;-74
2023/02/27 01:49:28;;;;;;;3.08;1.25;;;5.60;99.90;;;;;;5045513;28;20229;-76
2023/02/27 01:52:00;;;;;;;1.95;1.33;;;5.60;99.90;;;;;;5051083;28;20201;-76
2023/02/27 01:54:31;;;;;;;0.80;0.80;;;5.60;99.90;;;;;;5043887;28;20236;-74
2023/02/27 01:57:06;;;;;;;0.95;0.80;;;5.70;99.90;;;;;;5037339;28;20833;-75
2023/02/27 01:59:38;;;;;;;1.15;0.88;;;5.60;99.90;;;;;;5045158;28;20696;-75
2023/02/27 02:02:14;;;;;;;1.05;0.90;;;5.60;99.90;;;;;;5050242;28;20193;-75
2023/02/27 02:04:45;;;;;;;1.67;1.08;;;5.60;99.90;;;;;;5064114;28;20317;-75
2023/02/27 02:07:17;;;;;;;1.00;0.70;;;5.60;99.90;;;;;;5048369;28;20255;-76
2023/02/27 02:09:49;;;;;;;1.88;1.40;;;5.60;99.90;;;;;;5054398;28;20216;-74
2023/02/27 02:12:21;;;;;;;1.30;1.00;;;5.60;99.90;;;;;;5046926;28;20204;-76
2023/02/27 02:14:51;;;;;;;1.48;0.82;;;5.60;99.90;;;;;;5045658;28;20216;-74
2023/02/27 02:17:28;;;;;;;2.03;1.13;;;5.60;99.90;;;;;;5037603;28;20631;-75
2023/02/27 02:20:38;;;;;;;1.15;0.95;;;5.60;99.90;;;;;;5036867;28;20311;-75
2023/02/27 02:23:38;;;;;;;1.60;1.20;;;5.60;99.90;;;;;;5043032;28;20672;-76
2023/02/27 02:26:24;;;;;;;2.10;1.30;;;5.60;99.90;;;;;;5027931;28;20649;-77
2023/02/27 02:29:22;;;;;;;1.42;1.17;;;5.60;99.90;;;;;;5040801;28;20328;-75
2023/02/27 02:32:34;;;;;;;1.45;1.10;;;5.60;99.90;;;;;;5048954;28;20333;-75
2023/02/27 02:35:44;;;;;;;1.50;1.00;;;5.60;99.90;;;;;;5042723;28;20220;-76
2023/02/27 02:38:48;;;;;;;1.40;0.90;;;5.60;99.90;;;;;;5046924;28;20255;-75
2023/02/27 02:41:24;;;;;;;1.30;1.10;;;5.60;99.90;;;;;;5051283;28;20298;-76
2023/02/27 02:44:02;;;;;;;1.67;1.13;;;5.60;99.90;;;;;;5046207;28;20195;-76
2023/02/27 02:46:37;;;;;;;1.10;1.00;;;5.60;99.90;;;;;;5047461;28;20248;-75
2023/02/27 02:49:14;;;;;;;1.25;0.95;;;5.60;99.90;;;;;;5046042;28;20261;-76
2023/02/27 02:51:49;;;;;;;1.55;1.10;;;5.60;99.90;;;;;;5063005;28;20233;-75
2023/02/27 02:54:26;;;;;;;1.80;1.17;;;5.60;99.90;;;;;;5044475;28;20220;-77
2023/02/27 02:57:04;;;;;;;1.80;0.95;;;5.60;99.90;;;;;;5044247;28;20319;-75
2023/02/27 02:59:39;;;;;;;1.20;0.90;;;5.60;99.90;;;;;;5046031;28;20302;-75
2023/02/27 03:02:11;;;;;;;1.10;0.75;;;5.60;99.90;;;;;;5049096;28;20723;-77
2023/02/27 03:04:42;;;;;;;1.40;0.82;;;5.60;99.90;;;;;;5034194;28;20217;-75
2023/02/27 03:07:16;;;;;;;1.92;1.10;;;5.60;99.90;;;;;;5047817;28;20238;-76
2023/02/27 03:09:50;;;;;;;1.75;1.17;;;5.60;99.90;;;;;;5048731;28;20230;-75
2023/02/27 03:12:24;;;;;;;2.28;1.40;;;5.60;99.90;;;;;;5046166;28;20564;-76
2023/02/27 03:14:59;;;;;;;1.80;1.30;;;5.60;99.90;;;;;;5046011;28;20221;-74
2023/02/27 03:17:33;;;;;;;1.55;1.10;;;5.60;99.90;;;;;;5050325;28;20215;-74
2023/02/27 03:20:07;;;;;;;0.88;0.63;;;5.60;99.90;;;;;;5036561;28;20311;-74
2023/02/27 03:22:39;;;;;;;1.35;0.75;;;5.60;99.90;;;;;;5040935;28;20189;-74
2023/02/27 03:25:14;;;;;;;1.02;0.85;;;5.60;99.90;;;;;;5043327;28;20231;-74
2023/02/27 03:27:53;;;;;;;0.80;0.70;;;5.60;99.90;;;;;;5050106;28;20248;-74
2023/02/27 03:30:27;;;;;;;4.22;1.25;;;5.60;99.90;;;;;;5041480;28;20264;-74
2023/02/27 03:33:01;;;;;;;1.50;1.00;;;5.50;99.90;;;;;;5044341;28;20192;-74
2023/02/27 03:35:43;;;;;;;1.13;0.93;;;5.50;99.90;;;;;;5048483;28;20566;-75
2023/02/27 03:38:19;;;;;;;1.70;1.10;;;5.50;99.90;;;;;;5046868;28;20560;-69
2023/02/27 03:40:58;;;;;;;1.63;0.70;;;5.50;99.90;;;;;;5046982;28;20289;-68
2023/02/27 03:43:44;;;;;;;1.60;1.08;;;5.50;99.90;;;;;;5047760;28;20259;-68
2023/02/27 03:46:16;;;;;;;1.77;1.40;;;5.50;99.90;;;;;;5056523;28;20219;-70
2023/02/27 03:48:45;;;;;;;2.97;1.20;;;5.50;99.90;;;;;;5037317;28;20224;-67
2023/02/27 03:51:14;;;;;;;2.08;0.80;;;5.50;99.90;;;;;;5040072;28;20643;-69
2023/02/27 03:53:49;;;;;;;2.47;0.80;;;5.50;99.90;;;;;;5036251;28;20279;-69
2023/02/27 03:56:27;;;;;;;1.17;0.73;;;5.50;99.90;;;;;;5051014;28;20303;-68
2023/02/27 03:58:57;;;;;;;1.02;0.77;;;5.50;99.90;;;;;;5047806;28;20201;-69
2023/02/27 04:01:26;;;;;;;1.45;0.80;;;5.50;99.90;;;;;;5050019;28;20227;-68
2023/02/27 04:04:01;;;;;;;1.77;0.77;;;5.50;99.90;;;;;;5045640;28;20235;-67
2023/02/27 04:07:24;;;;;;;1.13;0.70;;;5.50;99.90;;;;;;5047130;28;20668;-68
2023/02/27 04:10:26;;;;;;;1.35;1.05;;;5.50;99.90;;;;;;5045095;28;20220;-70
2023/02/27 04:13:26;;;;;;;1.30;0.70;;;5.50;99.90;;;;;;4991763;28;20189;-68
2023/02/27 04:16:15;;;;;;;2.75;1.00;;;5.50;99.90;;;;;;5044599;28;20232;-67
2023/02/27 04:18:54;;;;;;;1.10;1.00;;;5.50;99.90;;;;;;5024854;28;20188;-68
2023/02/27 04:21:31;;;;;;;1.55;0.90;;;5.50;99.90;;;;;;5044165;28;20515;-68
2023/02/27 04:24:07;;;;;;;3.08;1.00;;;5.50;99.90;;;;;;5040020;28;20651;-69
2023/02/27 04:26:41;;;;;;;1.08;0.80;;;5.50;99.90;;;;;;5037535;28;20717;-68
2023/02/27 04:29:16;;;;;;;1.38;1.20;;;5.50;99.90;;;;;;5041490;28;20282;-68
2023/02/27 04:31:50;;;;;;;1.13;1.00;;;5.50;99.90;;;;;;5045826;28;20225;-67
2023/02/27 04:34:26;;;;;;;1.45;1.00;;;5.50;99.90;;;;;;5058163;28;20320;-67
2023/02/27 04:37:01;;;;;;;1.73;1.13;;;5.50;99.90;;;;;;5047005;28;20215;-68
2023/02/27 04:39:34;;;;;;;0.95;0.85;;;5.40;99.90;;;;;;5046250;28;20217;-67
2023/02/27 04:42:05;;;;;;;1.33;1.00;;;5.40;99.90;;;;;;5047217;28;20254;-68
2023/02/27 04:44:37;;;;;;;1.30;1.00;;;5.40;99.90;;;;;;5044957;28;20216;-66
2023/02/27 04:47:09;;;;;;;0.93;0.80;;;5.40;99.90;;;;;;5049529;28;20336;-67
2023/02/27 04:49:42;;;;;;;1.27;1.10;;;5.40;99.90;;;;;;5048851;28;20229;-68
2023/02/27 04:52:14;;;;;;;1.40;1.02;;;5.40;99.90;;;;;;5048510;28;20197;-65
2023/02/27 04:54:46;;;;;;;1.42;1.02;;;5.40;99.90;;;;;;5060967;28;20217;-67
2023/02/27 04:57:20;;;;;;;1.40;1.00;;;5.40;99.90;;;;;;5042693;28;20213;-66
2023/02/27 04:59:55;;;;;;;1.42;1.00;;;5.40;99.90;;;;;;5047719;28;20221;-67
2023/02/27 05:02:27;;;;;;;2.35;1.00;;;5.40;99.90;;;;;;5066071;28;20277;-67
2023/02/27 05:05:00;;;;;;;2.78;1.13;;;5.40;99.90;;;;;;5047967;28;20558;-67
2023/02/27 05:07:33;;;;;;;1.10;0.85;;;5.40;99.90;;;;;;5041839;28;20311;-68
2023/02/27 05:10:05;;;;;;;1.40;1.00;;;5.40;99.90;;;;;;5044011;28;20219;-66
2023/02/27 05:12:38;;;;;;;1.90;1.10;;;5.40;99.90;;;;;;5036786;28;20201;-65
2023/02/27 05:15:13;;;;;;;1.05;0.90;;;5.40;99.90;;;;;;5041946;28;20340;-68
2023/02/27 05:17:46;;;;;;;1.38;1.00;;;5.40;99.90;;;;;;5048117;28;20241;-66
2023/02/27 05:20:17;;;;;;;1.45;0.77;;;5.40;99.90;;;;;;5041131;28;20304;-67
2023/02/27 05:22:48;;;;;;;1.35;0.90;;;5.40;99.90;;;;;;5043507;28;20192;-68
2023/02/27 05:25:26;;;;;;;1.20;0.70;;;5.40;99.90;;;;;;5057365;28;20251;-67
2023/02/27 05:27:59;;;;;;;1.17;0.70;;;5.40;99.90;;;;;;5059250;28;20286;-66
2023/02/27 05:30:34;;;;;;;1.20;0.93;;;5.40;99.90;;;;;;5042910;28;20310;-66
2023/02/27 05:33:09;;;;;;;1.52;0.90;;;5.30;99.90;;;;;;5045746;28;20631;-67
2023/02/27 05:35:45;;;;;;;1.63;1.13;;;5.30;99.90;;;;;;5044092;28;20611;-67
2023/02/27 05:38:19;;;;;;;1.40;1.25;;;5.30;99.90;;;;;;5058996;28;20576;-67
2023/02/27 05:40:53;;;;;;;1.45;1.10;;;5.30;99.90;;;;;;5045608;28;20191;-67
2023/02/27 05:43:25;;;;;;;1.15;0.90;;;5.30;99.90;;;;;;5041041;28;20742;-68
2023/02/27 05:45:59;;;;;;;1.70;0.82;;;5.30;99.90;;;;;;5059031;28;20246;-65
2023/02/27 05:48:32;;;;;;;1.40;1.05;;;5.30;99.90;;;;;;5059529;28;20227;-67
2023/02/27 05:51:03;;;;;;;1.98;0.90;;;5.30;99.90;;;;;;5045183;28;20200;-67
2023/02/27 05:53:38;;;;;;;1.42;1.13;;;5.30;99.90;;;;;;5064243;28;20203;-67
2023/02/27 05:56:08;;;;;;;0.98;0.80;;;5.30;99.90;;;;;;5045893;28;20220;-68
2023/02/27 05:58:40;;;;;;;1.27;0.80;;;5.30;99.90;;;;;;5043664;28;20216;-66
2023/02/27 06:01:12;;;;;;;1.63;1.00;;;5.30;99.90;;;;;;5046564;28;20635;-68
2023/02/27 06:03:41;;;;;;;1.30;0.70;;;5.30;99.90;;;;;;5039810;28;20197;-66
2023/02/27 06:06:14;;;;;;;1.13;0.75;;;5.30;99.90;;;;;;5044081;28;20306;-66
2023/02/27 06:08:43;;;;;;;1.25;0.90;;;5.30;99.90;;;;;;5038351;28;20216;-66
2023/02/27 06:11:12;;;;;;;1.10;0.90;;;5.30;99.90;;;;;;5040310;28;20233;-66
2023/02/27 06:13:40;;;;;;;1.20;1.10;;;5.30;99.90;;;;;;5040157;28;20217;-66
2023/02/27 06:16:12;;;;;;;1.63;0.90;;;5.20;99.90;;;;;;5038639;28;20213;-65
2023/02/27 06:18:41;;;;;;;2.90;1.52;;;5.20;99.90;;;;;;5060109;28;20731;-68
2023/02/27 06:21:09;;;;;;;1.30;0.82;;;5.20;99.90;;;;;;5043900;28;20215;-66
2023/02/27 06:23:38;;;;;;;1.98;1.10;;;5.20;99.90;;;;;;5036050;28;20289;-67
2023/02/27 06:26:06;;;;;;;1.20;0.90;;;5.20;99.90;;;;;;5047707;28;20212;-65
2023/02/27 06:28:34;;;;;;;1.00;0.77;;;5.20;99.90;;;;;;5051750;28;20228;-67
2023/02/27 06:31:03;;;;;;;1.02;0.80;;;5.20;99.90;;;;;;5046186;28;20197;-66
2023/02/27 06:33:34;;;;;;;1.23;1.10;;;5.20;99.90;;;;;;5065080;28;20205;-68
2023/02/27 06:36:02;;;;;;;1.20;0.77;;;5.20;99.90;;;;;;5046434;28;20283;-67
2023/02/27 06:38:31;;;;;;;1.77;1.10;;;5.20;99.90;;;;;;5044018;28;20222;-66
2023/02/27 06:40:59;;;;;;;2.28;0.82;;;5.20;99.90;;;;;;5044189;28;20203;-67
2023/02/27 06:43:29;;;;;;;2.25;0.90;;;5.20;99.90;;;;;;5058433;28;21315;-68
2023/02/27 06:45:57;;;;;;;1.00;0.90;;;5.20;99.90;;;;;;5042632;28;20236;-68
2023/02/27 06:48:25;;;;;;;2.20;1.30;;;5.20;99.90;;;;;;5045789;28;20216;-67
2023/02/27 06:50:56;;;;;;;1.10;1.00;;;5.20;99.90;;;;;;5055757;28;20308;-65
2023/02/27 06:53:25;;;;;;;1.30;1.00;;;5.20;99.90;;;;;;5035912;28;20612;-67
2023/02/27 06:55:54;;;;;;;2.55;1.10;;;5.20;99.90;;;;;;5048509;28;20622;-65
2023/02/27 06:58:23;;;;;;;1.20;1.10;;;5.20;99.90;;;;;;5048846;28;20193;-66
2023/02/27 07:00:52;;;;;;;1.15;1.05;;;5.20;99.90;;;;;;5040284;28;20198;-67
2023/02/27 07:03:20;;;;;;;1.38;0.85;;;5.20;99.90;;;;;;5043955;28;20685;-67
2023/02/27 07:05:49;;;;;;;2.22;1.00;;;5.20;99.90;;;;;;5047274;28;20204;-67
2023/02/27 07:08:19;;;;;;;2.17;0.90;;;5.20;99.90;;;;;;5041906;28;20301;-67
2023/02/27 07:10:47;;;;;;;1.40;1.17;;;5.10;99.90;;;;;;5049445;28;20283;-67
2023/02/27 07:13:17;;;;;;;1.52;1.08;;;5.10;99.90;;;;;;5063027;28;20200;-66
2023/02/27 07:15:47;;;;;;;1.38;1.13;;;5.10;99.90;;;;;;5050598;28;20201;-65
2023/02/27 07:18:15;;;;;;;1.30;0.85;;;5.10;99.90;;;;;;5046827;28;20561;-66
2023/02/27 07:20:43;;;;;;;1.08;0.77;;;5.10;99.90;;;;;;5080899;28;20283;-66
2023/02/27 07:23:12;;;;;;;1.48;1.02;;;5.10;99.90;;;;;;5046719;28;20627;-66
2023/02/27 07:25:41;;;;;;;1.05;0.95;;;5.10;99.90;;;;;;5059962;28;20745;-69
2023/02/27 07:28:10;;;;;;;1.25;0.85;;;5.10;99.90;;;;;;5043421;28;20216;-66
2023/02/27 07:30:38;;;;;;;1.92;1.23;;;5.10;99.90;;;;;;5065839;28;20184;-67
2023/02/27 07:33:07;;;;;;;1.75;1.00;;;5.10;99.90;;;;;;5046857;28;20320;-66
2023/02/27 07:35:35;;;;;;;1.10;0.95;;;5.10;99.90;;;;;;5038035;28;20201;-68
2023/02/27 07:38:04;;;;;;;1.30;1.00;;;5.10;99.90;;;;;;5047805;28;20209;-67
2023/02/27 07:40:33;;;;;;;2.17;1.55;;;5.10;99.90;;;;;;5066872;28;20196;-67
2023/02/27 07:43:03;;;;;;;1.30;1.20;;;5.10;99.90;;;;;;5067138;28;20196;-66
2023/02/27 07:45:31;;;;;;;1.52;1.17;;;5.10;99.90;;;;;;5045625;28;20298;-68
2023/02/27 07:48:00;;;;;;;1.63;0.93;;;5.10;99.90;;;;;;5048985;28;20227;-67
2023/02/27 07:50:28;;;;;;;1.77;1.10;;;5.10;99.90;;;;;;5022368;28;20221;-67
2023/02/27 07:52:57;;;;;;;1.20;1.10;;;5.10;99.90;;;;;;5063751;28;20200;-67
2023/02/27 07:55:25;;;;;;;2.20;1.50;;;5.10;99.90;;;;;;5053404;28;20597;-66
2023/02/27 07:57:54;;;;;;;3.10;1.20;;;5.10;99.90;;;;;;5048887;28;20570;-66
2023/02/27 08:00:23;;;;;;;2.00;1.30;;;5.10;99.90;;;;;;5047317;28;20274;-65
2023/02/27 08:02:52;;;;;;;1.60;1.20;;;5.10;99.90;;;;;;5042459;28;20209;-67
2023/02/27 08:05:20;;;;;;;1.88;1.33;;;5.10;99.90;;;;;;5066259;28;20715;-68
2023/02/27 08:07:49;;;;;;;1.63;1.10;;;5.10;99.90;;;;;;5065911;28;20250;-68
2023/02/27 08:10:18;;;;;;;1.90;1.33;;;5.10;99.90;;;;;;5044103;28;20235;-68
2023/02/27 08:12:46;;;;;;;1.45;1.08;;;5.10;99.90;;;;;;5044841;28;20250;-68
2023/02/27 08:15:16;;;;;;;2.03;1.48;;;5.10;99.90;;;;;;5046867;28;20414;-69
2023/02/27 08:17:47;;;;;;;1.13;0.90;;;5.10;99.90;;;;;;5046131;28;20251;-68
2023/02/27 08:20:15;;;;;;;1.88;1.20;;;5.10;99.90;;;;;;5046641;28;20243;-69
2023/02/27 08:22:44;;;;;;;1.48;1.20;;;5.10;99.90;;;;;;5045565;28;20219;-68
2023/02/27 08:25:12;;;;;;;2.85;1.25;;;5.10;99.90;;;;;;5048795;28;20228;-67
2023/02/27 08:27:41;;;;;;;0.90;0.80;;;5.10;99.90;;;;;;5030066;28;20662;-69
2023/02/27 08:30:11;;;;;;;2.08;1.50;;;5.10;99.90;;;;;;5064518;28;20212;-69
2023/02/27 08:32:40;;;;;;;1.23;1.05;;;5.10;99.90;;;;;;5047176;28;20680;-68
2023/02/27 08:35:10;;;;;;;1.73;0.90;;;5.10;99.90;;;;;;5048825;28;20222;-69
2023/02/27 08:38:28;;;;;;;1.00;0.77;;;5.10;99.90;;;;;;5058957;28;20224;-69
2023/02/27 08:40:57;;;;;;;2.22;1.35;;;5.10;99.90;;;;;;5049521;28;20183;-68
2023/02/27 08:43:25;;;;;;;1.40;1.08;;;5.10;99.90;;;;;;5045246;28;20286;-68
2023/02/27 08:45:53;;;;;;;1.83;0.98;;;5.20;99.90;;;;;;5048321;28;20847;-67
2023/02/27 08:48:23;;;;;;;2.90;1.05;;;5.20;99.90;;;;;;5045753;28;20581;-69
2023/02/27 08:50:53;;;;;;;2.08;1.38;;;5.20;99.90;;;;;;5047259;28;20208;-68
2023/02/27 08:53:25;;;;;;;1.60;1.25;;;5.20;99.90;;;;;;5024560;28;20204;-67
2023/02/27 08:55:53;;;;;;;1.40;1.20;;;5.20;99.90;;;;;;5046490;28;20208;-69
2023/02/27 08:58:22;;;;;;;2.10;1.33;;;5.20;99.90;;;;;;5045618;28;20228;-69
2023/02/27 09:00:50;;;;;;;1.55;0.90;;;5.20;99.90;;;;;;5066145;28;20188;-69
2023/02/27 09:03:19;;;;;;;2.50;1.13;;;5.20;99.90;;;;;;5044767;28;20201;-69
2023/02/27 09:05:48;;;;;;;1.42;0.93;;;5.20;99.90;;;;;;5048735;28;20228;-68
2023/02/27 09:08:18;;;;;;;2.05;0.70;;;5.20;99.90;;;;;;5043151;28;20224;-69
2023/02/27 09:10:46;;;;;;;1.35;1.05;;;5.20;99.90;;;;;;5045386;28;20218;-70
2023/02/27 09:13:15;;;;;;;1.20;1.00;;;5.20;99.90;;;;;;5039324;28;20281;-69
2023/02/27 09:15:43;;;;;;;1.30;1.20;;;5.20;99.90;;;;;;5055730;28;20232;-67
2023/02/27 09:18:12;;;;;;;2.10;1.15;;;5.20;99.90;;;;;;5045782;28;20295;-67
2023/02/27 09:20:40;;;;;;;2.53;1.15;;;5.30;99.90;;;;;;5063127;28;20184;-68
2023/02/27 09:23:09;;;;;;;1.20;0.98;;;5.20;99.90;;;;;;5044190;28;20224;-67
2023/02/27 09:25:39;;;;;;;1.73;0.88;;;5.20;99.90;;;;;;5045674;28;20616;-67
2023/02/27 09:28:07;;;;;;;1.23;1.05;;;5.30;99.90;;;;;;5058434;28;20287;-69
2023/02/27 09:30:35;;;;;;;2.10;1.10;;;5.30;99.90;;;;;;5042386;28;20269;-68
2023/02/27 09:33:04;;;;;;;1.30;1.00;;;5.30;99.90;;;;;;5043409;28;20251;-68
2023/02/27 09:35:32;;;;;;;1.20;0.80;;;5.30;99.90;;;;;;5064478;28;20286;-68
2023/02/27 09:38:01;;;;;;;1.40;0.90;;;5.30;99.90;;;;;;5046364;28;20208;-71
2023/02/27 09:40:32;;;;;;;1.60;0.90;;;5.30;99.90;;;;;;5055904;28;20209;-67
2023/02/27 09:43:12;;;;;;;1.40;1.00;;;5.30;99.90;;;;;;5038943;28;21578;-68
2023/02/27 09:45:42;;;;;;;1.60;1.10;;;5.30;99.90;;;;;;5041846;28;20246;-68
2023/02/27 09:48:19;;;;;;;1.65;1.00;;;5.30;99.90;;;;;;5061941;28;20196;-67
2023/02/27 09:50:49;;;;;;;1.67;1.17;;;5.30;99.90;;;;;;5042576;28;20211;-68
2023/02/27 09:53:25;;;;;;;1.13;1.00;;;5.30;99.90;;;;;;5058243;28;20212;-68
2023/02/27 09:55:57;;;;;;;3.83;0.90;;;5.30;99.90;;;;;;5040469;28;20280;-68
2023/02/27 09:58:45;;;;;;;0.90;0.60;;;5.30;99.90;;;;;;5037632;28;20297;-68
2023/02/27 10:01:20;;;;;;;1.50;0.90;;;5.30;99.90;;;;;;5042066;28;20231;-68
2023/02/27 10:04:13;;;;;;;1.63;1.17;;;5.30;99.90;;;;;;5051137;28;20196;-66
2023/02/27 10:06:44;;;;;;;1.42;0.88;;;5.30;99.90;;;;;;5046778;28;20245;-68
2023/02/27 10:09:34;;;;;;;2.25;1.00;;;5.30;99.90;;;;;;5040691;28;20227;-69
2023/02/27 10:12:31;;;;;;;1.10;1.00;;;5.30;99.90;;;;;;5059377;28;20228;-68
2023/02/27 10:15:04;;;;;;;2.13;1.23;;;5.30;99.90;;;;;;5049062;28;20559;-69
2023/02/27 10:17:37;;;;;;;1.30;0.80;;;5.30;99.90;;;;;;5050293;28;20246;-69
2023/02/27 10:20:13;;;;;;;1.65;1.08;;;5.30;99.90;;;;;;5067226;28;20273;-68
2023/02/27 10:22:46;;;;;;;1.30;0.77;;;5.30;99.90;;;;;;5049918;28;20243;-69
2023/02/27 10:25:17;;;;;;;1.70;1.25;;;5.30;99.90;;;;;;5051129;28;20233;-67
2023/02/27 10:28:08;;;;;;;1.73;1.00;;;5.30;99.90;;;;;;5048731;28;20248;-67
2023/02/27 10:30:38;;;;;;;2.28;1.05;;;5.30;99.90;;;;;;5052728;28;20223;-69
2023/02/27 10:33:10;;;;;;;1.45;0.90;;;5.30;99.90;;;;;;5043757;28;20190;-70
2023/02/27 10:35:41;;;;;;;1.35;1.00;;;5.30;99.90;;;;;;5046519;28;20204;-68
2023/02/27 10:38:15;;;;;;;1.20;1.00;;;5.30;99.90;;;;;;5050037;28;20628;-68
2023/02/27 10:40:44;;;;;;;2.22;1.20;;;5.20;99.90;;;;;;5050384;28;20255;-68
2023/02/27 10:43:17;;;;;;;1.50;0.98;;;5.20;99.90;;;;;;5049905;28;20197;-69
2023/02/27 10:45:47;;;;;;;1.05;0.70;;;5.20;99.90;;;;;;5049352;28;20232;-68
2023/02/27 10:48:16;;;;;;;1.85;1.00;;;5.20;99.90;;;;;;5055910;28;20218;-67
2023/02/27 10:50:49;;;;;;;3.35;1.15;;;5.20;99.90;;;;;;5045674;28;20211;-69
2023/02/27 10:53:20;;;;;;;1.33;0.73;;;5.20;99.90;;;;;;5045551;28;20199;-69
2023/02/27 10:56:00;;;;;;;1.20;1.05;;;5.20;99.90;;;;;;5049504;28;20217;-68
2023/02/27 10:58:32;;;;;;;1.65;0.85;;;5.20;99.90;;;;;;5049090;28;20207;-68
2023/02/27 11:01:06;;;;;;;1.33;0.88;;;5.20;99.90;;;;;;5043328;28;20192;-68
2023/02/27 11:03:37;;;;;;;2.20;0.90;;;5.20;99.90;;;;;;5050566;28;20284;-67
2023/02/27 11:06:12;;;;;;;1.55;1.00;;;5.20;99.90;;;;;;5049070;28;20247;-68
2023/02/27 11:08:42;;;;;;;1.27;1.10;;;5.20;99.90;;;;;;5049377;28;20223;-68
2023/02/27 11:11:12;;;;;;;1.20;0.93;;;5.20;99.90;;;;;;5048035;28;20202;-69
2023/02/27 11:13:41;;;;;;;1.10;0.68;;;5.20;99.90;;;;;;5043422;28;20384;-69
2023/02/27 11:16:14;;;;;;;1.48;1.25;;;5.20;99.90;;;;;;5043694;28;20248;-68
2023/02/27 11:18:44;;;;;;;1.80;1.10;;;5.20;99.90;;;;;;5046884;28;20279;-68
2023/02/27 11:21:21;;;;;;;1.88;1.20;;;5.20;99.90;;;;;;5042593;28;20202;-69
2023/02/27 11:23:57;;;;;;;1.20;0.80;;;5.20;99.90;;;;;;5046109;28;20283;-69
2023/02/27 11:26:29;;;;;;;1.70;0.93;;;5.20;99.90;;;;;;5063879;28;20271;-69
2023/02/27 11:29:14;;;;;;;1.92;0.98;;;5.20;99.90;;;;;;5056767;28;20224;-68
2023/02/27 11:31:53;;;;;;;1.27;1.15;;;5.20;99.90;;;;;;5045961;28;20239;-68
2023/02/27 11:34:26;;;;;;;1.35;0.88;;;5.20;99.90;;;;;;5041494;28;20282;-69
2023/02/27 11:36:59;;;;;;;1.70;1.05;;;5.20;99.90;;;;;;5033154;28;20216;-68
2023/02/27 11:39:33;;;;;;;1.30;0.98;;;5.20;99.90;;;;;;5038401;28;20318;-68
2023/02/27 11:42:12;;;;;;;2.03;1.20;;;5.20;99.90;;;;;;5050089;28;20232;-69
2023/02/27 11:44:59;;;;;;;1.10;0.90;;;5.20;99.90;;;;;;5044283;28;20248;-69
2023/02/27 11:47:33;;;;;;;3.13;1.00;;;5.20;99.90;;;;;;5063304;28;20213;-68
2023/02/27 11:50:30;;;;;;;0.98;0.88;;;5.20;99.90;;;;;;5049295;28;20238;-68
2023/02/27 11:53:09;;;;;;;1.17;0.90;;;5.20;99.90;;;;;;5029224;28;20181;-67
2023/02/27 11:55:38;;;;;;;0.90;0.80;;;5.20;99.90;;;;;;5046857;28;20302;-69
2023/02/27 11:58:13;;;;;;;2.05;0.70;;;5.20;99.90;;;;;;5064533;28;20217;-69
2023/02/27 12:00:48;;;;;;;1.77;0.90;;;5.20;99.90;;;;;;5049855;28;20287;-68
2023/02/27 12:03:24;;;;;;;1.33;0.90;;;5.20;99.90;;;;;;5058207;28;20258;-69
2023/02/27 12:05:55;;;;;;;1.00;0.90;;;5.20;99.90;;;;;;5047116;28;20291;-68
2023/02/27 12:08:32;;;;;;;1.50;0.70;;;5.20;99.90;;;;;;5048996;28;20224;-68
2023/02/27 12:11:05;;;;;;;1.35;0.90;;;5.20;99.90;;;;;;5062226;28;20556;-70
2023/02/27 12:13:46;;;;;;;2.53;1.15;;;5.20;99.90;;;;;;5038761;28;20253;-69
2023/02/27 12:16:21;;;;;;;0.88;0.70;;;5.20;99.90;;;;;;5048798;28;20263;-68
2023/02/27 12:18:57;;;;;;;1.45;1.15;;;5.20;99.90;;;;;;5054526;28;20215;-69
2023/02/27 12:21:30;;;;;;;1.42;1.10;;;5.20;99.90;;;;;;5049720;28;20279;-69
2023/02/27 12:24:04;;;;;;;1.45;0.70;;;5.20;99.90;;;;;;5046761;28;20192;-67
2023/02/27 12:26:36;;;;;;;1.70;0.70;;;5.20;99.90;;;;;;5048348;28;20291;-69
2023/02/27 12:29:13;;;;;;;1.05;0.90;;;5.20;99.90;;;;;;5057768;28;20263;-68
2023/02/27 12:31:48;;;;;;;1.60;1.10;;;5.20;99.90;;;;;;5065050;28;20578;-70
2023/02/27 12:34:25;;;;;;;1.90;0.90;;;5.20;99.90;;;;;;5060451;28;20215;-67
2023/02/27 12:36:56;;;;;;;1.40;0.90;;;5.20;99.90;;;;;;5041816;28;20281;-68
2023/02/27 12:39:27;;;;;;;1.15;0.75;;;5.20;99.90;;;;;;5042540;28;20215;-68
2023/02/27 12:42:27;;;;;;;0.90;0.70;;;5.20;99.90;;;;;;5055933;28;20187;-67
2023/02/27 12:45:22;;;;;;;1.30;1.10;;;5.20;99.90;;;;;;5045546;28;20250;-68
2023/02/27 12:47:59;;;;;;;1.95;0.70;;;5.20;99.90;;;;;;5039668;28;20215;-68
2023/02/27 12:50:45;;;;;;;1.73;0.45;;;5.20;99.90;;;;;;5040319;28;20683;-68
2023/02/27 12:53:34;;;;;;;1.20;1.10;;;5.20;99.90;;;;;;5041123;28;20272;-69
2023/02/27 12:56:09;;;;;;;0.88;0.63;;;5.20;99.90;;;;;;5059712;28;20266;-67
2023/02/27 12:58:47;;;;;;;1.30;1.00;;;5.20;99.90;;;;;;5049737;28;20245;-69
2023/02/27 13:01:30;;;;;;;1.15;0.90;;;5.20;99.90;;;;;;5047683;28;20296;-68
2023/02/27 13:04:05;;;;;;;1.50;0.80;;;5.20;99.90;;;;;;5057198;28;20672;-68
2023/02/27 13:06:44;;;;;;;1.00;0.73;;;5.20;99.90;;;;;;5042591;28;20218;-69
2023/02/27 13:09:27;;;;;;;1.42;0.80;;;5.20;99.90;;;;;;5065747;28;20220;-67
2023/02/27 13:12:02;;;;;;;1.50;0.88;;;5.20;99.90;;;;;;5032242;28;20238;-66
2023/02/27 13:14:40;;;;;;;2.00;1.00;;;5.20;99.90;;;;;;5042440;28;20223;-68
2023/02/27 13:17:17;;;;;;;0.95;0.68;;;5.20;99.90;;;;;;5044813;28;20252;-68
2023/02/27 13:19:51;;;;;;;0.90;0.70;;;5.20;99.90;;;;;;5044904;28;20220;-68
2023/02/27 13:22:30;;;;;;;1.35;1.13;;;5.20;99.90;;;;;;5063693;28;20246;-68
2023/02/27 13:25:01;;;;;;;1.30;0.88;;;5.20;99.90;;;;;;5037265;28;20300;-70
2023/02/27 13:27:35;;;;;;;1.80;0.75;;;5.20;99.90;;;;;;5065394;28;20302;-68
2023/02/27 13:30:17;;;;;;;1.38;0.85;;;5.20;99.90;;;;;;5045481;28;20259;-67
2023/02/27 13:32:52;;;;;;;1.35;1.02;;;5.20;99.90;;;;;;5048905;28;20271;-67
2023/02/27 13:35:31;;;;;;;1.50;1.00;;;5.30;99.90;;;;;;5064974;28;20358;-68
2023/02/27 13:38:04;;;;;;;1.13;0.77;;;5.20;99.90;;;;;;5035000;28;20210;-68
2023/02/27 13:40:38;;;;;;;1.70;1.20;;;5.20;99.90;;;;;;5021903;28;20236;-68
2023/02/27 13:43:28;;;;;;;1.35;0.82;;;5.20;99.90;;;;;;5037443;28;20192;-68
2023/02/27 13:45:58;;;;;;;2.30;1.20;;;5.30;99.90;;;;;;5055740;28;20587;-68
2023/02/27 13:48:41;;;;;;;1.42;1.05;;;5.30;99.90;;;;;;5037338;28;20567;-68